Time;durP1;ratioP1;P1;durP2;ratioP2;P2;SDS_P1;SDS_P2;PMS_P1;PMS_P2;Temp;Humidity;BMP_temperature;BMP_pressure;BME280_temperature;BME280_humidity;BME280_pressure;Samples;Min_cycle;Max_cycle;Signal;HPM_P1;HPM_P2
2023/05/23 03:48:28;;;;;;;;;20.00;18.00;;;;;16.50;60.25;98452.44;7361515;23;98769;31
2023/05/23 03:51:32;;;;;;;;;17.40;17.00;;;;;16.58;59.98;98455.44;6005182;29;97076;-60
2023/05/23 03:54:36;;;;;;;;;17.00;16.00;;;;;16.67;58.96;98448.38;5987573;29;96981;-60
2023/05/23 03:57:39;;;;;;;;;19.00;17.25;;;;;16.71;58.38;98454.13;6002876;29;96271;-60
2023/05/23 04:27:50;;;;;;;;;21.20;18.00;;;;;17.31;55.89;98455.94;6000396;29;96678;-60
2023/05/23 04:30:55;;;;;;;;;15.00;14.00;;;;;17.46;55.81;98458.66;6011965;29;96303;-61
2023/05/23 04:34:02;;;;;;;;;17.60;16.00;;;;;17.57;55.21;98446.63;6015151;29;96491;-62
2023/05/23 04:37:10;;;;;;;;;17.00;17.00;;;;;17.71;54.68;98444.16;6034308;28;96396;-60
2023/05/23 04:40:14;;;;;;;;;17.20;16.20;;;;;17.89;54.43;98446.25;6027362;29;96543;-61
2023/05/23 04:43:41;;;;;;;;;18.00;16.00;;;;;17.92;53.90;98447.63;6025772;29;96139;-61
2023/05/23 04:47:01;;;;;;;;;16.60;15.60;;;;;18.08;53.72;98444.53;6008769;29;96546;-62
2023/05/23 04:50:20;;;;;;;;;17.20;16.20;;;;;18.18;53.42;98439.00;5988455;29;97423;-62
2023/05/23 04:53:24;;;;;;;;;19.00;18.00;;;;;18.28;52.97;98438.13;6016597;29;98449;-61
2023/05/23 04:56:28;;;;;;;;;19.40;17.40;;;;;18.43;52.29;98437.22;5986648;29;98379;-61
2023/05/23 04:59:32;;;;;;;;;13.80;13.00;;;;;18.35;52.05;98426.91;6019881;29;96929;-60
2023/05/23 05:02:37;;;;;;;;;19.40;19.00;;;;;18.44;52.16;98436.13;6000024;29;96960;-61
2023/05/23 05:05:41;;;;;;;;;17.50;16.50;;;;;18.56;52.07;98432.00;6018286;29;96724;-61
2023/05/23 05:08:45;;;;;;;;;19.00;17.00;;;;;18.59;52.00;98425.94;6016768;29;96260;-61
2023/05/23 05:11:48;;;;;;;;;19.25;18.50;;;;;18.66;51.42;98436.56;6001297;29;96909;-61
2023/05/23 05:14:54;;;;;;;;;18.75;17.00;;;;;18.70;51.39;98429.41;5999671;29;96529;-62
2023/05/23 05:17:58;;;;;;;;;18.00;16.00;;;;;18.85;51.10;98436.66;6006703;29;96975;-61
2023/05/23 05:21:01;;;;;;;;;16.00;14.00;;;;;18.92;51.51;98427.03;5997920;29;98613;-61
2023/05/23 05:24:05;;;;;;;;;20.25;18.00;;;;;19.13;51.53;98443.25;5983659;29;98449;-61
2023/05/23 05:27:10;;;;;;;;;18.25;16.25;;;;;19.33;50.67;98435.66;5996118;29;98499;-60
2023/05/23 05:30:15;;;;;;;;;19.80;18.40;;;;;19.51;49.85;98431.38;5985246;29;98970;-61
2023/05/23 05:33:27;;;;;;;;;17.60;16.00;;;;;19.72;50.07;98431.97;6007805;29;96488;-60
2023/05/23 05:36:44;;;;;;;;;17.80;16.20;;;;;19.94;49.56;98432.22;5974156;29;96724;-61
2023/05/23 05:39:48;;;;;;;;;20.40;18.00;;;;;20.12;48.84;98425.16;6005146;29;96355;-61
2023/05/23 05:42:52;;;;;;;;;19.00;17.40;;;;;20.19;48.15;98429.16;5993953;29;97337;-61
2023/05/23 05:45:58;;;;;;;;;18.00;16.00;;;;;20.42;48.64;98430.25;6005486;29;98332;-61
2023/05/23 05:49:02;;;;;;;;;16.00;15.00;;;;;20.61;48.23;98427.47;6002675;29;96273;-61
2023/05/23 05:52:07;;;;;;;;;17.00;16.00;;;;;20.69;48.27;98427.63;5994977;29;96879;-61
2023/05/23 05:55:11;;;;;;;;;16.40;14.60;;;;;20.93;47.76;98427.50;5986843;29;97742;-61
2023/05/23 05:58:19;;;;;;;;;18.20;17.60;;;;;21.12;46.85;98428.25;6006673;29;96391;-61
2023/05/23 06:01:33;;;;;;;;;20.50;17.50;;;;;21.22;46.57;98427.28;6008622;29;96343;-61
2023/05/23 06:04:37;;;;;;;;;22.00;18.40;;;;;21.27;45.45;98427.19;6000440;29;98000;-61
2023/05/23 06:07:40;;;;;;;;;19.40;17.40;;;;;21.38;45.43;98420.41;5999164;29;96430;-62
2023/05/23 06:10:44;;;;;;;;;19.00;17.25;;;;;21.52;45.65;98421.22;5998005;29;96808;-60
2023/05/23 06:13:47;;;;;;;;;16.00;14.50;;;;;21.71;45.05;98412.88;6002442;29;96506;-61
2023/05/23 06:16:52;;;;;;;;;21.60;18.00;;;;;21.87;44.95;98410.66;5990610;29;96677;-62
2023/05/23 06:19:55;;;;;;;;;17.40;17.00;;;;;22.05;44.80;98409.72;5999566;29;98132;-61
2023/05/23 06:23:00;;;;;;;;;20.00;17.80;;;;;22.16;43.12;98415.81;5990481;29;96422;-61
2023/05/23 06:26:06;;;;;;;;;21.40;20.40;;;;;22.06;43.64;98386.66;6004843;29;96501;-60
2023/05/23 06:29:10;;;;;;;;;22.00;20.00;;;;;22.30;43.63;98413.84;5996584;29;96595;-62
2023/05/23 06:32:15;;;;;;;;;20.80;18.80;;;;;22.33;43.45;98411.28;5985205;29;96283;-61
2023/05/23 06:35:19;;;;;;;;;22.00;20.00;;;;;22.39;42.92;98411.97;6002138;29;96621;-61
2023/05/23 06:38:22;;;;;;;;;18.00;17.00;;;;;22.46;42.32;98413.19;6007448;29;96296;-61
2023/05/23 06:41:26;;;;;;;;;19.60;18.00;;;;;22.46;43.17;98406.88;6001771;29;97584;-61
2023/05/23 06:44:30;;;;;;;;;20.40;17.00;;;;;22.62;43.95;98408.16;6019060;29;96539;-60
2023/05/23 06:47:42;;;;;;;;;17.60;16.60;;;;;22.81;42.99;98400.56;6006235;29;96478;-59
2023/05/23 06:50:46;;;;;;;;;19.40;17.60;;;;;22.94;42.31;98396.09;5993738;29;96530;-60
2023/05/23 06:53:50;;;;;;;;;17.25;16.00;;;;;23.04;42.58;98404.09;5999541;29;96404;-59
2023/05/23 06:56:54;;;;;;;;;18.00;17.00;;;;;23.18;42.13;98404.81;6020268;29;96383;-60
2023/05/23 06:59:57;;;;;;;;;16.50;15.00;;;;;23.29;41.83;98395.19;6014150;29;98527;-59
2023/05/23 07:03:02;;;;;;;;;16.20;15.60;;;;;23.50;41.65;98392.72;6014176;29;96746;-60
2023/05/23 07:06:06;;;;;;;;;16.00;15.00;;;;;23.72;40.94;98398.13;6005410;29;96395;-61
2023/05/23 07:09:10;;;;;;;;;17.00;16.00;;;;;23.92;40.13;98393.16;6005435;29;96880;-58
2023/05/23 07:12:15;;;;;;;;;16.60;14.80;;;;;23.93;39.31;98383.75;6012501;29;96399;-60
2023/05/23 07:15:21;;;;;;;;;16.00;15.00;;;;;24.06;39.36;98377.28;6012946;29;96231;-59
2023/05/23 07:18:41;;;;;;;;;19.00;17.00;;;;;24.16;39.67;98380.59;6014450;29;96475;-59
2023/05/23 07:21:45;;;;;;;;;19.00;16.60;;;;;24.43;40.12;98379.47;6011389;29;96740;-60
2023/05/23 07:24:51;;;;;;;;;16.00;15.60;;;;;24.74;39.34;98379.28;6017569;29;96583;-60
2023/05/23 07:27:57;;;;;;;;;13.40;12.80;;;;;25.10;39.01;98386.38;6009652;29;98520;-59
2023/05/23 07:31:00;;;;;;;;;16.00;15.80;;;;;25.39;38.75;98387.25;6004586;29;96507;-59
2023/05/23 07:34:06;;;;;;;;;15.75;14.00;;;;;25.71;38.09;98396.88;6019960;29;96317;-60
2023/05/23 07:37:18;;;;;;;;;14.25;14.00;;;;;25.97;36.79;98387.63;6022735;29;96920;-60
2023/05/23 07:40:22;;;;;;;;;14.20;13.20;;;;;26.25;37.11;98383.25;6042727;29;96430;-60
2023/05/23 07:43:25;;;;;;;;;17.00;16.00;;;;;26.53;36.64;98389.06;6003226;29;96195;-59
2023/05/23 07:46:28;;;;;;;;;15.40;14.00;;;;;26.69;35.12;98382.53;5994748;29;96463;-60
2023/05/23 07:49:34;;;;;;;;;14.00;13.00;;;;;26.90;37.23;98376.19;5982845;29;96500;-59
2023/05/23 07:52:39;;;;;;;;;13.00;12.50;;;;;27.20;36.11;98383.19;5995758;29;96292;-60
2023/05/23 07:55:47;;;;;;;;;12.00;12.00;;;;;27.40;34.23;98387.84;6002628;29;96905;-59
2023/05/23 07:58:50;;;;;;;;;14.40;13.40;;;;;27.46;33.35;98383.72;6013691;29;96450;-60
2023/05/23 08:01:54;;;;;;;;;15.50;14.25;;;;;27.27;33.17;98385.41;6004707;29;96312;-60
2023/05/23 08:05:01;;;;;;;;;14.40;14.40;;;;;27.41;33.94;98380.38;6005359;29;96110;-60
2023/05/23 08:08:05;;;;;;;;;13.60;13.00;;;;;27.60;35.06;98380.63;6020723;29;96258;-60
2023/05/23 08:11:10;;;;;;;;;12.00;12.00;;;;;27.82;34.24;98371.03;6022294;29;96419;-59
2023/05/23 08:14:20;;;;;;;;;17.00;15.00;;;;;28.20;33.83;98370.69;6022405;29;96305;-60
2023/05/23 08:17:45;;;;;;;;;12.50;11.50;;;;;28.32;33.63;98379.78;6007236;29;96296;-60
2023/05/23 08:20:50;;;;;;;;;14.00;13.50;;;;;28.45;32.75;98377.75;6020944;29;96376;-60
2023/05/23 08:23:54;;;;;;;;;14.20;13.20;;;;;28.47;32.98;98378.22;6004366;29;96554;-60
2023/05/23 08:53:19;;;;;;;;;12.40;12.00;;;;;29.50;31.64;98353.31;7031686;23;99434;-87
2023/05/23 08:56:27;;;;;;;;;11.40;11.40;;;;;29.94;30.74;98382.63;6032536;28;98039;-88
2023/05/23 09:02:59;;;;;;;;;12.20;12.00;;;;;29.79;30.98;98316.72;6040616;28;96933;-88
2023/05/23 09:06:29;;;;;;;;;11.00;11.00;;;;;29.78;28.37;98362.34;6059284;28;96610;-88
2023/05/23 09:09:35;;;;;;;;;13.40;11.60;;;;;29.65;30.13;98360.84;6558818;23;98955;-89
2023/05/23 09:12:42;;;;;;;;;13.00;13.00;;;;;29.78;31.09;98373.47;6061895;28;96782;-89
2023/05/23 09:15:58;;;;;;;;;12.60;12.00;;;;;29.74;29.90;98344.78;6060769;28;96911;-89
2023/05/23 09:22:52;;;;;;;;;14.00;13.00;;;;;29.72;29.56;98363.78;628731;26;96440;-89
2023/05/23 09:26:02;;;;;;;;;11.40;11.00;;;;;29.42;31.25;98299.56;6036876;28;97172;-90
2023/05/23 09:29:07;;;;;;;;;11.50;11.00;;;;;30.17;30.36;98360.50;6040862;28;96848;-90
2023/05/23 09:32:12;;;;;;;;;14.00;12.00;;;;;30.18;29.84;98334.31;6049957;28;96321;-89
2023/05/23 09:35:16;;;;;;;;;12.00;11.50;;;;;30.48;27.96;98348.47;6052789;28;97530;-90
2023/05/23 09:38:21;;;;;;;;;9.50;9.25;;;;;30.39;28.31;98336.75;6049153;28;97029;-90
2023/05/23 09:41:30;;;;;;;;;11.00;11.00;;;;;30.43;27.58;98365.44;6057109;28;96836;-90
2023/05/23 09:44:41;;;;;;;;;12.00;11.00;;;;;30.24;28.05;98318.94;6073809;28;96287;-91
2023/05/23 09:47:50;;;;;;;;;9.75;9.00;;;;;30.16;27.32;98353.31;6050432;28;96950;-90
2023/05/23 09:50:54;;;;;;;;;8.00;8.00;;;;;29.21;28.39;98201.88;6051134;28;96903;-90
2023/05/23 09:53:58;;;;;;;;;11.00;9.80;;;;;30.50;29.73;98338.59;6062187;28;96604;-90
2023/05/23 09:57:07;;;;;;;;;9.00;9.00;;;;;30.88;28.96;98304.38;6063226;28;97278;-90
2023/05/23 10:00:13;;;;;;;;;12.00;11.50;;;;;31.51;27.53;98334.53;6044510;28;96313;-90
2023/05/23 10:03:17;;;;;;;;;8.75;8.75;;;;;31.35;26.95;98317.94;6078348;28;96599;-88
2023/05/23 10:06:26;;;;;;;;;10.00;9.00;;;;;31.36;27.18;98329.91;6072991;28;96548;-89
2023/05/23 10:09:36;;;;;;;;;10.00;8.00;;;;;31.78;27.61;98338.97;6050553;28;97090;-88
2023/05/23 10:12:44;;;;;;;;;9.60;9.00;;;;;31.83;26.11;98344.22;6081647;28;96736;-89
2023/05/23 10:15:49;;;;;;;;;10.00;9.00;;;;;31.49;24.84;98327.72;6046294;28;99592;-89
2023/05/23 10:18:58;;;;;;;;;7.80;6.60;;;;;31.03;26.51;98201.66;6075723;28;97318;-89
2023/05/23 10:22:06;;;;;;;;;9.60;9.20;;;;;31.66;26.32;98266.72;6067358;28;97156;-88
2023/05/23 10:25:10;;;;;;;;;10.40;9.00;;;;;32.32;25.91;98320.22;6058064;28;96845;-88
2023/05/23 10:28:16;;;;;;;;;8.00;8.00;;;;;31.23;25.64;98114.84;6035888;28;96893;-88
2023/05/23 10:31:21;;;;;;;;;7.00;7.00;;;;;32.49;25.23;98316.88;6045603;28;97008;-89
2023/05/23 10:45:49;;;;;;;;;8.80;7.80;;;;;32.99;25.04;98299.50;830242;23;96800;-88
2023/05/23 10:48:57;;;;;;;;;8.33;8.00;;;;;33.00;24.23;98306.69;5995460;29;97077;-91
2023/05/23 10:52:01;;;;;;;;;9.60;9.40;;;;;32.96;25.43;98268.75;6035328;28;96931;-88
2023/05/23 10:55:37;;;;;;;;;10.00;9.00;;;;;33.50;25.20;98302.38;6033849;23;96786;31
2023/05/23 10:58:41;;;;;;;;;9.00;9.00;;;;;33.02;24.50;98186.22;5969794;29;96841;-90
2023/05/23 11:01:44;;;;;;;;;9.00;9.00;;;;;33.71;23.47;98268.22;6004953;28;98461;-91
2023/05/23 11:05:19;;;;;;;;;9.00;8.25;;;;;33.73;24.32;98257.44;5995047;28;96576;-89
2023/05/23 11:08:44;;;;;;;;;10.00;10.00;;;;;34.04;23.38;98286.78;5088774;23;97253;-87
2023/05/23 11:15:44;;;;;;;;;7.00;6.40;;;;;33.85;22.13;98278.69;1049327;23;98071;-91
2023/05/23 11:18:52;;;;;;;;;7.00;7.00;;;;;33.98;23.36;98271.56;6024717;28;97005;-92
2023/05/23 11:33:15;;;;;;;;;7.80;7.00;;;;;34.51;22.36;98246.63;6817039;23;98857;-92
2023/05/23 11:36:21;;;;;;;;;6.00;6.00;;;;;34.42;21.29;98200.59;6215746;23;98047;-93
2023/05/23 11:39:25;;;;;;;;;6.75;6.25;;;;;34.47;22.10;98217.81;6023020;28;96529;-92
2023/05/23 11:42:28;;;;;;;;;7.00;7.00;;;;;34.46;21.80;98179.81;6068132;28;98509;-92
2023/05/23 11:45:34;;;;;;;;;8.00;7.00;;;;;34.92;20.60;98229.53;6028064;28;96513;-91
2023/05/23 11:48:45;;;;;;;;;9.75;8.00;;;;;34.99;21.53;98233.13;6050038;28;96340;-91
2023/05/23 11:51:48;;;;;;;;;6.60;6.40;;;;;35.04;20.05;98215.91;6060228;28;96870;-91
2023/05/23 12:06:54;;;;;;;;;9.25;8.25;;;;;34.79;20.87;98226.31;692999;23;98518;-91
2023/05/23 12:09:59;;;;;;;;;7.00;7.00;;;;;34.53;20.47;98204.25;6047755;28;97279;-92
2023/05/23 12:13:04;;;;;;;;;9.00;7.20;;;;;34.46;20.81;98223.81;6107916;28;96315;-91
2023/05/23 12:16:10;;;;;;;;;10.00;9.00;;;;;33.99;20.87;98199.63;6081538;28;97097;-91
2023/05/23 12:26:48;;;;;;;;;5.00;5.00;;;;;33.89;19.28;98243.94;2820159;23;98837;-91
2023/05/23 12:29:52;;;;;;;;;8.00;8.00;;;;;33.83;20.76;98209.16;6072646;28;97503;-91
2023/05/23 12:32:56;;;;;;;;;7.00;7.00;;;;;33.63;21.46;98159.50;6083652;28;96402;-91
2023/05/23 12:46:37;;;;;;;;;7.00;7.00;;;;;34.40;21.48;98187.03;7862121;22;1515642;-90
2023/05/23 12:49:43;;;;;;;;;8.00;8.00;;;;;34.65;22.18;98207.44;7728595;22;97987;-90
2023/05/23 12:52:47;;;;;;;;;9.00;9.00;;;;;34.50;20.26;98210.66;7727993;22;98224;-90
2023/05/23 12:55:52;;;;;;;;;9.40;9.00;;;;;34.02;22.04;98137.31;7728779;22;95907;-90
2023/05/23 12:58:55;;;;;;;;;8.60;8.00;;;;;34.43;21.62;98182.63;7753566;22;96350;-91
2023/05/23 13:09:09;;;;;;;;;8.00;8.00;;;;;33.50;20.95;98170.22;7800834;22;96292;-91
2023/05/23 13:12:15;;;;;;;;;8.50;8.00;;;;;33.70;22.10;98195.91;7750635;22;97267;-91
2023/05/23 13:15:18;;;;;;;;;10.00;7.00;;;;;33.44;22.20;98180.97;7762602;22;96587;-91
2023/05/23 13:21:52;;;;;;;;;9.00;8.00;;;;;32.85;21.93;98151.38;7782817;22;96983;-59
2023/05/23 13:24:56;;;;;;;;;8.60;7.60;;;;;32.75;22.32;98195.94;7784919;22;97398;-59
2023/05/23 13:28:00;;;;;;;;;8.40;8.00;;;;;32.54;22.94;98199.31;7784850;22;96369;-59
2023/05/23 13:31:04;;;;;;;;;9.00;9.00;;;;;32.49;23.93;98185.72;7784380;22;96638;-59
2023/05/23 13:34:07;;;;;;;;;9.20;8.40;;;;;32.75;23.62;98204.31;7784629;22;96198;-59
2023/05/23 13:37:10;;;;;;;;;10.00;10.00;;;;;32.75;22.67;98201.53;7785112;22;96326;-59
2023/05/23 13:40:18;;;;;;;;;9.40;9.00;;;;;32.36;22.42;98210.28;7785268;22;96796;-59
2023/05/23 13:43:21;;;;;;;;;7.20;7.20;;;;;32.08;22.96;98209.94;7785309;22;96896;-59
2023/05/23 13:46:25;;;;;;;;;9.00;9.00;;;;;31.98;23.41;98210.59;7779346;22;96338;-59
2023/05/23 13:49:28;;;;;;;;;10.00;9.00;;;;;32.04;25.12;98212.69;7775996;22;98013;-59
2023/05/23 13:52:32;;;;;;;;;9.00;8.00;;;;;32.15;24.58;98213.66;7770771;22;96584;-60
2023/05/23 13:55:36;;;;;;;;;9.00;7.00;;;;;32.22;23.04;98215.69;7773584;22;96534;-59
2023/05/23 13:58:41;;;;;;;;;6.80;6.00;;;;;32.17;24.00;98216.03;7774660;22;96343;-59
2023/05/23 14:01:45;;;;;;;;;7.60;7.00;;;;;31.85;24.33;98201.69;7773846;22;97312;-59
2023/05/23 14:04:48;;;;;;;;;12.00;9.00;;;;;31.78;25.10;98202.38;7774001;22;96465;-59
2023/05/23 14:07:52;;;;;;;;;10.40;9.00;;;;;31.63;24.03;98195.00;7775613;22;97112;-59
2023/05/23 14:10:57;;;;;;;;;9.00;8.60;;;;;31.56;24.75;98199.66;7775373;22;97392;-59
2023/05/23 14:14:00;;;;;;;;;8.00;8.00;;;;;31.47;24.21;98196.34;7775690;22;96359;-59
2023/05/23 14:17:03;;;;;;;;;9.50;9.00;;;;;31.32;23.90;98200.91;7775442;22;97341;-59
2023/05/23 14:20:08;;;;;;;;;9.67;8.67;;;;;31.29;24.79;98190.50;7776260;22;97393;-60
2023/05/23 14:23:11;;;;;;;;;10.00;9.00;;;;;31.23;25.11;98209.50;7776001;22;96392;-59
2023/05/23 14:26:16;;;;;;;;;11.40;9.00;;;;;31.20;25.75;98206.69;7776597;22;96363;-59
2023/05/23 14:29:20;;;;;;;;;10.40;9.40;;;;;31.17;24.78;98210.22;7776406;22;96276;-59
2023/05/23 14:32:23;;;;;;;;;12.00;11.00;;;;;31.08;25.32;98213.28;7775559;22;96692;-59
2023/05/23 14:35:28;;;;;;;;;9.00;8.40;;;;;30.94;24.28;98224.13;7775925;22;97393;-59
2023/05/23 14:38:31;;;;;;;;;12.00;11.00;;;;;30.39;28.85;98240.22;7771481;22;98531;-60
2023/05/23 14:41:36;;;;;;;;;12.00;12.00;;;;;30.05;30.52;98233.56;7745907;22;99553;-60
2023/05/23 14:44:39;;;;;;;;;13.60;12.40;;;;;29.70;31.80;98239.13;7773783;22;96320;-60
2023/05/23 14:47:43;;;;;;;;;13.00;10.60;;;;;29.56;32.85;98233.28;7774738;22;96993;-59
2023/05/23 14:50:46;;;;;;;;;10.50;10.50;;;;;29.33;33.06;98223.16;7775338;22;96640;-59
2023/05/23 14:53:50;;;;;;;;;12.60;12.00;;;;;29.19;33.39;98240.28;7747148;22;97239;-60
2023/05/23 14:56:55;;;;;;;;;14.60;14.60;;;;;29.04;33.86;98236.34;7747465;22;96992;-59
2023/05/23 14:59:58;;;;;;;;;13.00;11.40;;;;;28.79;34.36;98244.03;7771722;22;97274;-60
2023/05/23 15:03:02;;;;;;;;;15.00;14.60;;;;;28.56;34.90;98228.31;7771112;22;96386;-60
2023/05/23 15:06:06;;;;;;;;;14.00;12.80;;;;;28.42;35.42;98235.09;7774577;22;96503;-59
2023/05/23 15:09:10;;;;;;;;;15.60;15.00;;;;;28.21;36.73;98226.19;7719922;22;98899;-60
2023/05/23 15:12:15;;;;;;;;;14.00;13.00;;;;;27.96;37.58;98225.44;7747147;22;96957;-60
2023/05/23 15:15:21;;;;;;;;;12.00;12.00;;;;;27.69;37.95;98225.41;7747225;22;96372;-60
2023/05/23 15:18:25;;;;;;;;;12.20;12.00;;;;;27.52;38.57;98232.81;7774318;22;96675;-60
2023/05/23 15:21:43;;;;;;;;;15.00;14.00;;;;;27.27;38.93;98222.91;7744732;22;98398;-60
2023/05/23 15:24:49;;;;;;;;;15.50;14.50;;;;;27.23;39.03;98226.72;7775242;22;96274;-60
2023/05/23 15:27:55;;;;;;;;;12.60;11.00;;;;;27.16;39.71;98216.25;7772807;22;97461;-60
2023/05/23 15:30:58;;;;;;;;;8.00;8.00;;;;;27.17;39.41;98226.16;7773143;22;96324;-60
2023/05/23 15:34:02;;;;;;;;;11.00;10.60;;;;;27.09;39.67;98213.22;7774087;22;96237;-60
2023/05/23 15:37:09;;;;;;;;;11.00;11.00;;;;;27.06;40.49;98225.81;7773565;22;96821;-60
2023/05/23 15:40:13;;;;;;;;;13.20;13.20;;;;;27.10;41.73;98220.38;7747599;22;96464;-60
2023/05/23 15:43:23;;;;;;;;;11.00;11.00;;;;;27.20;41.32;98224.66;7774366;22;96143;-60
2023/05/23 15:46:28;;;;;;;;;11.00;10.80;;;;;27.05;41.59;98210.38;7775284;22;96830;-60
2023/05/23 15:49:31;;;;;;;;;12.20;11.20;;;;;27.06;41.36;98211.97;7775585;22;96863;-60
2023/05/23 15:52:35;;;;;;;;;14.60;14.00;;;;;26.96;41.91;98208.88;7775206;22;96329;-60
2023/05/23 15:55:38;;;;;;;;;13.60;12.60;;;;;26.87;41.97;98211.75;7775030;22;97008;-60
2023/05/23 15:58:48;;;;;;;;;12.00;11.00;;;;;26.77;42.70;98205.81;7775199;22;96304;-60
2023/05/23 16:01:51;;;;;;;;;15.00;12.60;;;;;26.59;43.48;98202.44;7774622;22;96381;-60
2023/05/23 16:04:56;;;;;;;;;14.50;13.50;;;;;26.49;43.10;98186.28;7774479;22;97488;-60
2023/05/23 16:07:59;;;;;;;;;14.00;14.00;;;;;26.43;43.46;98194.03;7774323;22;96285;-60
2023/05/23 16:11:03;;;;;;;;;12.60;12.00;;;;;26.39;43.99;98198.59;7773817;22;96220;-60
2023/05/23 16:14:08;;;;;;;;;10.40;9.60;;;;;26.27;44.00;98198.59;7771866;22;96197;-60
2023/05/23 16:17:11;;;;;;;;;13.60;13.60;;;;;26.22;43.53;98207.09;7772739;22;96223;-60
2023/05/23 16:20:14;;;;;;;;;14.00;12.00;;;;;26.05;43.62;98209.97;7772943;22;96503;-60
2023/05/23 16:23:18;;;;;;;;;11.60;11.00;;;;;25.93;44.02;98219.03;7772343;22;96491;-60
2023/05/23 16:26:21;;;;;;;;;12.75;11.75;;;;;25.80;44.81;98209.06;7774358;22;96815;-60
2023/05/23 16:29:25;;;;;;;;;14.00;13.50;;;;;25.82;44.26;98213.09;7773523;22;96946;-60
2023/05/23 16:32:29;;;;;;;;;13.00;12.00;;;;;25.77;44.67;98213.31;7773773;22;96257;-60
2023/05/23 16:35:33;;;;;;;;;11.00;10.00;;;;;25.73;45.28;98219.84;7772076;22;96239;-60
2023/05/23 16:38:36;;;;;;;;;10.80;9.80;;;;;25.65;46.63;98226.25;7769986;22;96911;-60
2023/05/23 16:41:39;;;;;;;;;13.75;12.75;;;;;25.49;47.11;98214.16;7772656;22;96272;-60
2023/05/23 16:44:44;;;;;;;;;12.00;11.25;;;;;25.35;47.33;98209.69;7770600;22;96802;-60
2023/05/23 16:47:48;;;;;;;;;12.00;11.60;;;;;25.34;47.64;98212.78;7717547;22;98663;-60
2023/05/23 16:50:53;;;;;;;;;14.60;14.00;;;;;25.16;48.92;98208.53;7772249;22;96893;-60
2023/05/23 16:53:57;;;;;;;;;14.00;14.00;;;;;25.01;49.03;98226.44;7773891;22;96377;-60
2023/05/23 16:57:01;;;;;;;;;13.00;12.67;;;;;24.91;49.62;98226.81;7772647;22;97313;-60
2023/05/23 17:00:08;;;;;;;;;12.40;11.40;;;;;24.83;49.62;98222.91;7773449;22;96742;-60
2023/05/23 17:03:11;;;;;;;;;13.80;12.80;;;;;24.76;49.46;98214.34;7773366;22;96228;-60
2023/05/23 17:06:15;;;;;;;;;13.00;12.40;;;;;24.56;50.62;98218.66;7773538;22;96579;-60
2023/05/23 17:09:20;;;;;;;;;12.60;11.60;;;;;24.62;49.65;98213.78;7772069;22;96368;-60
2023/05/23 17:12:23;;;;;;;;;11.00;10.60;;;;;24.55;50.10;98219.78;7772977;22;96408;-60
2023/05/23 17:15:28;;;;;;;;;14.40;13.00;;;;;24.52;50.00;98223.22;7772909;22;96170;-60
2023/05/23 17:18:31;;;;;;;;;12.40;12.40;;;;;24.42;50.17;98223.56;7773033;22;96371;-60
2023/05/23 17:21:35;;;;;;;;;10.00;10.00;;;;;24.37;50.15;98225.66;7773632;22;97108;-60
2023/05/23 17:24:38;;;;;;;;;12.00;11.40;;;;;24.33;50.71;98231.03;7775477;22;96490;-60
2023/05/23 17:27:42;;;;;;;;;12.60;11.60;;;;;24.28;50.96;98231.19;7746063;22;98448;-60
2023/05/23 17:30:46;;;;;;;;;11.00;9.20;;;;;24.29;50.92;98232.81;7744474;22;96653;-60
2023/05/23 17:33:49;;;;;;;;;11.50;10.00;;;;;24.26;50.64;98232.66;7747520;22;96469;-60
2023/05/23 17:36:53;;;;;;;;;13.00;12.00;;;;;24.25;50.73;98233.78;7775164;22;96883;-60
2023/05/23 17:39:56;;;;;;;;;11.75;11.00;;;;;24.28;50.66;98231.19;7773261;22;96350;-60
2023/05/23 17:43:00;;;;;;;;;11.00;10.60;;;;;24.24;50.77;98232.19;7717823;22;96905;-60
2023/05/23 17:46:05;;;;;;;;;15.00;15.00;;;;;24.20;50.93;98234.75;7720915;22;98847;-59
2023/05/23 17:49:09;;;;;;;;;16.00;15.00;;;;;24.17;50.86;98244.50;7722070;22;99921;-60
2023/05/23 17:52:13;;;;;;;;;13.60;13.00;;;;;24.16;50.96;98237.38;7720631;22;96570;-59
2023/05/23 17:55:17;;;;;;;;;14.00;12.00;;;;;24.15;51.18;98243.97;7721073;22;96545;-59
2023/05/23 17:58:20;;;;;;;;;12.50;12.00;;;;;24.15;51.11;98234.91;7718138;22;96603;-60
2023/05/23 18:01:26;;;;;;;;;10.40;9.80;;;;;24.17;51.38;98244.50;7718590;22;99301;-59
2023/05/23 18:04:30;;;;;;;;;8.75;7.75;;;;;24.16;51.35;98247.53;7719391;22;96570;-59
2023/05/23 18:07:34;;;;;;;;;14.00;12.00;;;;;24.15;51.44;98245.91;7717753;22;96614;-59
2023/05/23 18:10:37;;;;;;;;;12.40;12.00;;;;;24.14;51.85;98249.81;7721114;22;99334;-60
2023/05/23 18:13:42;;;;;;;;;10.80;10.00;;;;;24.17;51.67;98252.75;7772469;22;96929;-60
2023/05/23 18:16:47;;;;;;;;;14.75;12.50;;;;;24.23;51.33;98258.91;7772185;22;96640;-60
2023/05/23 18:19:50;;;;;;;;;12.00;11.00;;;;;24.19;51.82;98254.38;7771782;22;96660;-60
2023/05/23 18:22:55;;;;;;;;;14.00;13.00;;;;;24.21;51.60;98247.41;7771370;22;96631;-60
2023/05/23 18:25:59;;;;;;;;;13.20;13.00;;;;;24.25;51.61;98255.81;7718421;22;97730;-60
2023/05/23 18:29:03;;;;;;;;;13.00;13.00;;;;;24.13;51.68;98245.44;7771988;22;96379;-60
2023/05/23 18:32:08;;;;;;;;;11.80;11.80;;;;;24.20;52.06;98258.75;7773089;22;96434;-60
2023/05/23 18:35:11;;;;;;;;;12.40;12.40;;;;;24.18;51.97;98264.59;7773156;22;96914;-60
2023/05/23 18:38:15;;;;;;;;;11.00;10.00;;;;;24.17;52.14;98274.78;7773317;22;96603;-60
2023/05/23 18:41:18;;;;;;;;;16.00;14.00;;;;;24.11;52.65;98281.56;7772929;22;96334;-60
2023/05/23 18:44:22;;;;;;;;;13.40;13.00;;;;;24.11;53.03;98287.06;7772968;22;96219;-60
2023/05/23 18:47:27;;;;;;;;;14.60;13.60;;;;;24.09;53.29;98288.53;7775511;22;96844;-60
2023/05/23 18:50:30;;;;;;;;;14.60;14.40;;;;;24.03;54.05;98296.16;7774639;22;96245;-60
2023/05/23 18:53:33;;;;;;;;;17.60;16.00;;;;;24.04;53.91;98288.72;7745060;22;96620;-60
2023/05/23 18:56:37;;;;;;;;;13.50;13.00;;;;;23.94;54.79;98289.03;7772783;22;96595;-60
2023/05/23 18:59:40;;;;;;;;;13.00;11.40;;;;;23.89;54.82;98292.75;7772712;22;96382;-60
2023/05/23 19:02:45;;;;;;;;;16.00;15.40;;;;;23.89;54.48;98289.19;7774089;22;96209;-60
2023/05/23 19:05:49;;;;;;;;;17.40;16.00;;;;;23.90;54.41;98297.09;7774422;22;96526;-60
2023/05/23 19:08:53;;;;;;;;;15.00;14.60;;;;;23.89;54.84;98295.50;7773001;22;96419;-60
2023/05/23 19:11:56;;;;;;;;;15.00;14.40;;;;;23.87;54.52;98296.94;7773582;22;97058;-60
2023/05/23 19:14:59;;;;;;;;;15.00;14.50;;;;;23.84;54.67;98297.59;7773681;22;96737;-60
2023/05/23 19:18:04;;;;;;;;;13.25;13.25;;;;;23.78;54.66;98310.72;7744734;22;96982;-60
2023/05/23 19:21:08;;;;;;;;;16.00;14.40;;;;;23.77;54.94;98308.25;7745048;22;97027;-60
2023/05/23 19:24:12;;;;;;;;;15.80;15.80;;;;;23.74;55.00;98304.22;7771856;22;96535;-60
2023/05/23 19:27:16;;;;;;;;;14.60;14.00;;;;;23.70;55.66;98306.78;7773609;22;96282;-60
2023/05/23 19:30:19;;;;;;;;;15.60;14.00;;;;;23.68;55.83;98313.75;7773807;22;96397;-60
2023/05/23 19:33:24;;;;;;;;;15.00;14.00;;;;;23.60;56.07;98311.81;7747360;22;96460;-60
2023/05/23 19:36:27;;;;;;;;;15.00;14.00;;;;;23.59;56.33;98311.00;7775441;22;96340;-60
2023/05/23 19:39:31;;;;;;;;;14.00;14.00;;;;;23.59;56.54;98308.25;7775080;22;96212;-60
2023/05/23 19:42:34;;;;;;;;;14.20;14.20;;;;;23.57;56.44;98310.50;7774927;22;96498;-60
2023/05/23 19:45:37;;;;;;;;;17.25;16.25;;;;;23.56;56.36;98311.63;7774613;22;96527;-60
2023/05/23 19:48:42;;;;;;;;;16.20;15.60;;;;;23.51;57.06;98313.72;7775060;22;96460;-60
2023/05/23 19:51:46;;;;;;;;;14.00;14.00;;;;;23.45;57.42;98320.50;7775171;22;96423;-60
2023/05/23 19:54:49;;;;;;;;;16.00;16.00;;;;;23.40;57.50;98324.19;7774890;22;96343;-60
2023/05/23 19:57:52;;;;;;;;;16.00;15.60;;;;;23.39;58.03;98324.50;7775720;22;96192;-60
2023/05/23 20:00:56;;;;;;;;;18.50;17.00;;;;;23.32;58.51;98331.28;7774291;22;96795;-60
2023/05/23 20:04:00;;;;;;;;;13.40;12.60;;;;;23.29;58.83;98326.41;7775268;22;96322;-60
2023/05/23 20:07:05;;;;;;;;;16.60;15.60;;;;;23.22;59.23;98330.75;7746854;22;96407;-60
2023/05/23 20:10:11;;;;;;;;;16.00;15.00;;;;;23.19;59.58;98332.19;7775155;22;96521;-60
2023/05/23 20:13:15;;;;;;;;;16.00;16.00;;;;;23.12;60.18;98326.34;7775333;22;96234;-60